Главная страница
METAR-TAF:

METAR-TAF

Аэропорты :

Náměšť nad Oslavou, Чехия

широта: 49-09-57N, долгота: 16-07-30E, высота над уровнем моря: 472 м

Текущие метеонаблюдения

Эта сводка был подготовлена 1 час и 5 минут назад, в 20:00 UTC
Ветер 6 Узел от северо-восточный
Температура 15°C
Влажность 63%
Давление 1022 hPa
Видимость 10 км и более
Нет облачности ниже 1500 м, и нет кучево-дождевой облачности

METAR: LKNA 202000Z 05006KT CAVOK 15/08 Q1022 NOSIG RMK BLU BLU

Время: 23:05 (21:05 UTC)

Прогноз

Эта сводка был подготовлена 4 часа и 5 минут назад, в 17:00 UTC
Прогноз действительный с 20-го 18 UTC до 21-го 18 UTC
Ветер 8 Узел от восточно-северо-восточный
Видимость 10 км и более
Нет облачности ниже 1500 м, и нет кучево-дождевой облачности
временами
С 21-го 02 UTC до 21-го 06 UTC
Рассеянная облачность на высоте 1000 фута

TAF: LKNA 201700Z 2018/2118 07008KT CAVOK TEMPO 2102/2106 BKN010

Метеонаблюдения и прогнозы для более 4000 аэропортов (сводки METAR и TAF).

Имеющиеся станции представлены на карте желтыми и красными точками.

Чтобы увидеть название станции, наведите на нее мышь.

Затем щелкните, чтобы увидеть метеонаблюдения и метеопрогнозы.

Управление картой: чтобы увеличить масштаб, щелкните зеленые кнопки с черным крестиком; чтобы уменьшить масштаб, щелкните зеленую кнопку с тире; для просмотра соседних карт щелкайте зеленые стрелки.


METAR-TAF: